| time (UTC) | temp F | wind direction | speed knots | gust knots | rain 1hr in | rain 24hr in | rain mn in | humidity % | barometer mb |
| 20260505003047 | 68 | 0.0 | 0.0 | 0.00 | 0.00 | 0.00 | 49 | 1010.0 | |
| 20260505001546 | 69 | 0.0 | 0.0 | 0.00 | 0.00 | 0.00 | 48 | 1010.0 | |
| 20260505000046 | 69 | 0.0 | 0.0 | 0.00 | 0.00 | 0.00 | 46 | 1010.1 | |
| 20260504234551 | 70 | 0.0 | 0.0 | 0.00 | 0.00 | 0.00 | 45 | 1010.0 | |
| 20260504233058 | 71 | 0.0 | 0.0 | 0.00 | 0.00 | 0.00 | 44 | 1009.9 | |
| 20260504231547 | 71 | 0.0 | 0.0 | 0.00 | 0.00 | 0.00 | 43 | 1009.8 | |
| 20260504230047 | 72 | 0.0 | 0.0 | 0.00 | 0.00 | 0.00 | 43 | 1009.7 | |
| 20260504224544 | 72 | 0.0 | 0.0 | 0.00 | 0.00 | 0.00 | 41 | 1009.8 | |
| 20260504223052 | 73 | 0.0 | 0.0 | 0.00 | 0.00 | 0.00 | 40 | 1009.8 | |
| 20260504221603 | 73 | 0.0 | 0.0 | 0.00 | 0.00 | 0.00 | 38 | 1009.7 | |
| 20260504220118 | 74 | 0.0 | 0.0 | 0.00 | 0.00 | 0.00 | 39 | 1009.6 | |
| 20260504214544 | 74 | 0.0 | 0.0 | 0.00 | 0.00 | 0.00 | 37 | 1009.6 | |
| 20260504213100 | 75 | 0.0 | 0.0 | 0.00 | 0.00 | 0.00 | 36 | 1009.6 | |
| 20260504211544 | 75 | 0.0 | 0.0 | 0.00 | 0.00 | 0.00 | 37 | 1009.7 | |
| 20260504210046 | 75 | 0.0 | 0.0 | 0.00 | 0.00 | 0.00 | 38 | 1009.8 | |
| 20260504204601 | 75 | 0.0 | 0.0 | 0.00 | 0.00 | 0.00 | 36 | 1009.6 | |
| 20260504203049 | 75 | 0.0 | 0.0 | 0.00 | 0.00 | 0.00 | 34 | 1009.8 | |
| 20260504201548 | 76 | 0.0 | 0.0 | 0.00 | 0.00 | 0.00 | 35 | 1009.9 | |
| 20260504200048 | 76 | 0.0 | 0.0 | 0.00 | 0.00 | 0.00 | 34 | 1010.3 | |
| 20260504194546 | 77 | 0.0 | 0.0 | 0.00 | 0.00 | 0.00 | 33 | 1010.3 | |
| 20260504193045 | 77 | 0.0 | 0.0 | 0.00 | 0.00 | 0.00 | 32 | 1010.4 | |
| 20260504191544 | 77 | 0.0 | 0.0 | 0.00 | 0.00 | 0.00 | 34 | 1010.9 | |
| 20260504190050 | 77 | 0.0 | 0.0 | 0.00 | 0.00 | 0.00 | 34 | 1011.2 | |
| 20260504184543 | 76 | 0.0 | 0.0 | 0.00 | 0.00 | 0.00 | 34 | 1011.5 | |
| 20260504183051 | 76 | 0.0 | 0.0 | 0.00 | 0.00 | 0.00 | 35 | 1011.6 | |
| 20260504181549 | 75 | 0.0 | 0.0 | 0.00 | 0.00 | 0.00 | 35 | 1011.9 | |
| 20260504180045 | 74 | 0.0 | 0.0 | 0.00 | 0.00 | 0.00 | 36 | 1012.2 | |
| 20260504174549 | 73 | 0.0 | 0.0 | 0.00 | 0.00 | 0.00 | 35 | 1012.4 | |
| 20260504173048 | 71 | 0.0 | 0.0 | 0.00 | 0.00 | 0.00 | 38 | 1012.5 | |
| 20260504171548 | 70 | 0.0 | 0.0 | 0.00 | 0.00 | 0.00 | 37 | 1012.7 | |
| 20260504081548 | 49 | 0.0 | 0.0 | 0.00 | 0.00 | 0.00 | 70 | 1015.4 | |
| 20260504044542 | 48 | 0.0 | 0.0 | 0.00 | 0.00 | 0.00 | 64 | 1015.9 | |
| 20260504043052 | 48 | 0.0 | 0.0 | 0.00 | 0.00 | 0.00 | 61 | 1016.0 | |
| 20260504041547 | 48 | 0.0 | 0.0 | 0.00 | 0.00 | 0.00 | 59 | 1016.0 | |
| 20260504040049 | 48 | 0.0 | 0.0 | 0.00 | 0.00 | 0.00 | 58 | 1015.8 | |
| 20260504034548 | 49 | 0.0 | 0.0 | 0.00 | 0.00 | 0.00 | 58 | 1016.0 | |
| 20260504033046 | 49 | 0.0 | 0.0 | 0.00 | 0.00 | 0.00 | 57 | 1015.8 | |
| 20260504031545 | 50 | 0.0 | 0.0 | 0.00 | 0.00 | 0.00 | 54 | 1015.7 | |
| 20260504030046 | 50 | 0.0 | 0.0 | 0.00 | 0.00 | 0.00 | 51 | 1015.7 | |
| 20260504024549 | 51 | 0.0 | 0.0 | 0.00 | 0.00 | 0.00 | 51 | 1015.5 | |
| 20260504023050 | 51 | 0.0 | 0.0 | 0.00 | 0.00 | 0.00 | 53 | 1015.5 | |
| 20260504021546 | 51 | 0.0 | 0.0 | 0.00 | 0.00 | 0.00 | 53 | 1015.5 | |
| 20260504020124 | 51 | 0.0 | 0.0 | 0.00 | 0.00 | 0.00 | 54 | 1015.4 | |
| 20260504014558 | 52 | 0.0 | 0.0 | 0.00 | 0.00 | 0.00 | 54 | 1015.2 | |
| 20260504013058 | 53 | 0.0 | 0.0 | 0.00 | 0.00 | 0.00 | 53 | 1015.3 | |
| 20260504011550 | 53 | 0.0 | 0.0 | 0.00 | 0.00 | 0.00 | 48 | 1015.1 | |
| 20260504010047 | 54 | 0.0 | 0.0 | 0.00 | 0.00 | 0.00 | 45 | 1015.1 | |
| 20260504004616 | 54 | 0.0 | 0.0 | 0.00 | 0.00 | 0.00 | 44 | 1015.1 |